sensor_id;sensor_type;location;lat;lon;timestamp;pressure;altitude;pressure_sealevel;temperature;humidity
64711;BME280;51139;45.626;6.850;2022-12-18T00:01:33;82218.28;;;-3.02;33.47
64711;BME280;51139;45.626;6.850;2022-12-18T00:04:02;82217.81;;;-2.95;33.57
64711;BME280;51139;45.626;6.850;2022-12-18T00:06:29;82223.47;;;-2.90;33.24
64711;BME280;51139;45.626;6.850;2022-12-18T00:08:56;82224.38;;;-2.99;34.03
64711;BME280;51139;45.626;6.850;2022-12-18T00:11:23;82226.97;;;-3.05;32.88
64711;BME280;51139;45.626;6.850;2022-12-18T00:13:50;82233.38;;;-2.83;33.69
64711;BME280;51139;45.626;6.850;2022-12-18T00:16:18;82237.28;;;-3.22;34.20
64711;BME280;51139;45.626;6.850;2022-12-18T00:18:47;82239.22;;;-3.05;32.96
64711;BME280;51139;45.626;6.850;2022-12-18T00:21:14;82253.06;;;-3.14;34.52
64711;BME280;51139;45.626;6.850;2022-12-18T00:23:41;82243.94;;;-3.04;34.29
64711;BME280;51139;45.626;6.850;2022-12-18T00:26:30;82251.28;;;-2.91;34.36
64711;BME280;51139;45.626;6.850;2022-12-18T00:28:58;82251.72;;;-3.04;34.96
64711;BME280;51139;45.626;6.850;2022-12-18T00:31:25;82253.13;;;-3.03;32.28
64711;BME280;51139;45.626;6.850;2022-12-18T00:33:51;82251.00;;;-3.04;32.33
64711;BME280;51139;45.626;6.850;2022-12-18T00:36:19;82258.81;;;-2.99;32.48
64711;BME280;51139;45.626;6.850;2022-12-18T00:38:45;82257.38;;;-2.94;32.63
64711;BME280;51139;45.626;6.850;2022-12-18T00:41:13;82256.03;;;-2.78;31.77
64711;BME280;51139;45.626;6.850;2022-12-18T00:43:39;82256.44;;;-3.02;32.86
64711;BME280;51139;45.626;6.850;2022-12-18T00:46:05;82260.19;;;-3.09;33.16
64711;BME280;51139;45.626;6.850;2022-12-18T00:48:31;82265.88;;;-2.94;32.98
64711;BME280;51139;45.626;6.850;2022-12-18T00:50:57;82255.50;;;-2.99;32.71
64711;BME280;51139;45.626;6.850;2022-12-18T00:53:22;82261.41;;;-2.93;32.87
64711;BME280;51139;45.626;6.850;2022-12-18T00:55:48;82260.50;;;-2.84;32.68
64711;BME280;51139;45.626;6.850;2022-12-18T00:58:15;82257.41;;;-2.88;32.35
64711;BME280;51139;45.626;6.850;2022-12-18T01:00:42;82260.81;;;-2.42;33.63
64711;BME280;51139;45.626;6.850;2022-12-18T01:03:09;82261.53;;;-2.13;33.21
64711;BME280;51139;45.626;6.850;2022-12-18T01:05:39;82271.22;;;-1.91;32.38
64711;BME280;51139;45.626;6.850;2022-12-18T01:08:04;82266.50;;;-1.81;32.40
64711;BME280;51139;45.626;6.850;2022-12-18T01:10:29;82269.09;;;-1.76;32.28
64711;BME280;51139;45.626;6.850;2022-12-18T01:12:55;82267.69;;;-1.88;32.97
64711;BME280;51139;45.626;6.850;2022-12-18T01:15:20;82269.31;;;-2.36;34.36
64711;BME280;51139;45.626;6.850;2022-12-18T01:17:46;82278.97;;;-2.48;31.71
64711;BME280;51139;45.626;6.850;2022-12-18T01:20:12;82270.25;;;-2.33;30.83
64711;BME280;51139;45.626;6.850;2022-12-18T01:22:37;82289.78;;;-2.61;31.82
64711;BME280;51139;45.626;6.850;2022-12-18T01:25:04;82290.69;;;-2.81;32.22
64711;BME280;51139;45.626;6.850;2022-12-18T01:27:30;82297.03;;;-2.76;31.00
64711;BME280;51139;45.626;6.850;2022-12-18T01:29:56;82296.81;;;-2.67;29.66
64711;BME280;51139;45.626;6.850;2022-12-18T01:32:21;82291.44;;;-2.64;30.30
64711;BME280;51139;45.626;6.850;2022-12-18T01:34:47;82301.03;;;-2.81;31.84
64711;BME280;51139;45.626;6.850;2022-12-18T01:37:12;82295.09;;;-2.99;32.17
64711;BME280;51139;45.626;6.850;2022-12-18T01:39:38;82301.38;;;-3.11;34.37
64711;BME280;51139;45.626;6.850;2022-12-18T01:42:05;82295.06;;;-3.04;32.68
64711;BME280;51139;45.626;6.850;2022-12-18T01:47:27;82306.19;;;-2.92;34.23
64711;BME280;51139;45.626;6.850;2022-12-18T01:49:55;82306.25;;;-2.70;32.75
64711;BME280;51139;45.626;6.850;2022-12-18T01:52:21;82299.84;;;-2.91;33.07
64711;BME280;51139;45.626;6.850;2022-12-18T01:54:49;82303.41;;;-2.78;33.49
64711;BME280;51139;45.626;6.850;2022-12-18T01:57:16;82303.78;;;-3.08;33.66
64711;BME280;51139;45.626;6.850;2022-12-18T01:59:42;82307.50;;;-3.14;34.07
64711;BME280;51139;45.626;6.850;2022-12-18T02:02:11;82302.78;;;-3.16;34.03
64711;BME280;51139;45.626;6.850;2022-12-18T02:04:37;82307.09;;;-3.07;33.68
64711;BME280;51139;45.626;6.850;2022-12-18T02:10:24;82306.91;;;-2.86;34.46
64711;BME280;51139;45.626;6.850;2022-12-18T02:12:56;82309.41;;;-3.15;33.80
64711;BME280;51139;45.626;6.850;2022-12-18T02:15:40;82313.63;;;-3.17;34.50
64711;BME280;51139;45.626;6.850;2022-12-18T02:18:14;82308.22;;;-3.14;34.75
64711;BME280;51139;45.626;6.850;2022-12-18T02:20:47;82304.81;;;-3.37;34.92
64711;BME280;51139;45.626;6.850;2022-12-18T02:26:41;82314.22;;;-3.40;35.28
64711;BME280;51139;45.626;6.850;2022-12-18T02:29:08;82314.00;;;-3.36;34.30
64711;BME280;51139;45.626;6.850;2022-12-18T02:31:44;82307.22;;;-3.28;35.10
64711;BME280;51139;45.626;6.850;2022-12-18T02:34:11;82313.84;;;-3.15;34.41
64711;BME280;51139;45.626;6.850;2022-12-18T02:36:40;82307.56;;;-2.97;33.86
64711;BME280;51139;45.626;6.850;2022-12-18T02:39:10;82306.41;;;-3.02;34.06
64711;BME280;51139;45.626;6.850;2022-12-18T02:41:36;82308.31;;;-2.91;33.11
64711;BME280;51139;45.626;6.850;2022-12-18T02:44:09;82322.97;;;-2.82;33.81
64711;BME280;51139;45.626;6.850;2022-12-18T02:46:41;82320.84;;;-2.78;33.09
64711;BME280;51139;45.626;6.850;2022-12-18T02:52:21;82332.75;;;-3.09;35.51
64711;BME280;51139;45.626;6.850;2022-12-18T02:57:42;82340.09;;;-3.45;38.11
64711;BME280;51139;45.626;6.850;2022-12-18T03:00:28;82340.84;;;-3.39;38.88
64711;BME280;51139;45.626;6.850;2022-12-18T03:03:15;82337.81;;;-3.32;38.35
64711;BME280;51139;45.626;6.850;2022-12-18T03:05:48;82339.16;;;-3.42;37.21
64711;BME280;51139;45.626;6.850;2022-12-18T03:08:26;82338.97;;;-3.39;37.51
64711;BME280;51139;45.626;6.850;2022-12-18T03:11:13;82347.00;;;-3.31;36.15
64711;BME280;51139;45.626;6.850;2022-12-18T03:13:46;82340.69;;;-3.24;35.42
64711;BME280;51139;45.626;6.850;2022-12-18T03:16:19;82335.03;;;-3.23;34.13
64711;BME280;51139;45.626;6.850;2022-12-18T03:19:16;82342.13;;;-3.17;34.46
64711;BME280;51139;45.626;6.850;2022-12-18T03:21:46;82339.94;;;-3.30;34.89
64711;BME280;51139;45.626;6.850;2022-12-18T03:24:13;82338.09;;;-3.24;33.81
64711;BME280;51139;45.626;6.850;2022-12-18T03:26:44;82332.00;;;-3.15;34.00
64711;BME280;51139;45.626;6.850;2022-12-18T03:29:32;82338.34;;;-3.16;33.24
64711;BME280;51139;45.626;6.850;2022-12-18T03:32:04;82335.81;;;-3.11;32.78
64711;BME280;51139;45.626;6.850;2022-12-18T03:34:33;82332.47;;;-3.17;33.18
64711;BME280;51139;45.626;6.850;2022-12-18T03:37:02;82339.38;;;-3.02;33.93
64711;BME280;51139;45.626;6.850;2022-12-18T03:39:28;82343.63;;;-3.05;34.39
64711;BME280;51139;45.626;6.850;2022-12-18T03:42:06;82346.47;;;-2.97;33.94
64711;BME280;51139;45.626;6.850;2022-12-18T03:44:44;82337.91;;;-3.15;33.13
64711;BME280;51139;45.626;6.850;2022-12-18T03:47:27;82354.19;;;-3.09;32.75
64711;BME280;51139;45.626;6.850;2022-12-18T03:50:14;82346.63;;;-3.12;33.46
64711;BME280;51139;45.626;6.850;2022-12-18T03:55:47;82353.59;;;-3.35;33.55
64711;BME280;51139;45.626;6.850;2022-12-18T03:58:17;82362.97;;;-3.44;33.99
64711;BME280;51139;45.626;6.850;2022-12-18T04:00:45;82354.00;;;-3.43;33.59
64711;BME280;51139;45.626;6.850;2022-12-18T04:03:13;82360.19;;;-3.34;34.22
64711;BME280;51139;45.626;6.850;2022-12-18T04:05:41;82363.44;;;-3.40;34.55
64711;BME280;51139;45.626;6.850;2022-12-18T04:08:07;82366.13;;;-3.23;34.41
64711;BME280;51139;45.626;6.850;2022-12-18T04:10:32;82354.44;;;-3.06;33.30
64711;BME280;51139;45.626;6.850;2022-12-18T04:12:58;82363.03;;;-3.32;34.82
64711;BME280;51139;45.626;6.850;2022-12-18T04:15:23;82358.53;;;-3.32;34.00
64711;BME280;51139;45.626;6.850;2022-12-18T04:17:50;82361.44;;;-3.18;33.03
64711;BME280;51139;45.626;6.850;2022-12-18T04:20:17;82357.97;;;-3.10;33.55
64711;BME280;51139;45.626;6.850;2022-12-18T04:22:43;82354.88;;;-3.14;33.80
64711;BME280;51139;45.626;6.850;2022-12-18T04:25:08;82359.41;;;-3.03;33.02
64711;BME280;51139;45.626;6.850;2022-12-18T04:27:37;82360.41;;;-2.89;31.49
64711;BME280;51139;45.626;6.850;2022-12-18T04:30:02;82364.41;;;-2.94;31.97
64711;BME280;51139;45.626;6.850;2022-12-18T04:32:28;82372.78;;;-3.10;33.91
64711;BME280;51139;45.626;6.850;2022-12-18T04:34:53;82370.81;;;-3.27;33.74
64711;BME280;51139;45.626;6.850;2022-12-18T04:37:19;82380.06;;;-3.20;33.95
64711;BME280;51139;45.626;6.850;2022-12-18T04:39:44;82373.25;;;-3.12;33.63
64711;BME280;51139;45.626;6.850;2022-12-18T04:42:09;82371.00;;;-2.92;33.75
64711;BME280;51139;45.626;6.850;2022-12-18T04:44:36;82370.28;;;-2.93;32.70
64711;BME280;51139;45.626;6.850;2022-12-18T04:47:01;82372.91;;;-2.87;33.09
64711;BME280;51139;45.626;6.850;2022-12-18T04:49:26;82377.19;;;-2.79;33.20
64711;BME280;51139;45.626;6.850;2022-12-18T04:51:52;82376.00;;;-2.83;33.44
64711;BME280;51139;45.626;6.850;2022-12-18T04:54:18;82384.66;;;-2.98;33.76
64711;BME280;51139;45.626;6.850;2022-12-18T04:56:43;82386.50;;;-3.04;34.19
64711;BME280;51139;45.626;6.850;2022-12-18T04:59:08;82384.75;;;-3.18;34.40
64711;BME280;51139;45.626;6.850;2022-12-18T05:01:34;82397.28;;;-3.11;34.41
64711;BME280;51139;45.626;6.850;2022-12-18T05:04:00;82391.84;;;-3.13;34.16
64711;BME280;51139;45.626;6.850;2022-12-18T05:06:25;82386.47;;;-3.10;34.78
64711;BME280;51139;45.626;6.850;2022-12-18T05:08:50;82397.13;;;-2.96;33.77
64711;BME280;51139;45.626;6.850;2022-12-18T05:11:16;82399.22;;;-3.06;34.50
64711;BME280;51139;45.626;6.850;2022-12-18T05:13:42;82396.44;;;-2.97;34.56
64711;BME280;51139;45.626;6.850;2022-12-18T05:16:08;82406.56;;;-2.99;33.70
64711;BME280;51139;45.626;6.850;2022-12-18T05:18:34;82401.88;;;-2.95;32.80
64711;BME280;51139;45.626;6.850;2022-12-18T05:21:00;82403.69;;;-3.06;33.41
64711;BME280;51139;45.626;6.850;2022-12-18T05:23:26;82406.34;;;-2.95;33.83
64711;BME280;51139;45.626;6.850;2022-12-18T05:25:59;82411.75;;;-2.99;34.63
64711;BME280;51139;45.626;6.850;2022-12-18T05:28:28;82419.06;;;-2.97;32.92
64711;BME280;51139;45.626;6.850;2022-12-18T05:30:55;82411.03;;;-2.99;33.24
64711;BME280;51139;45.626;6.850;2022-12-18T05:33:23;82416.66;;;-3.06;33.94
64711;BME280;51139;45.626;6.850;2022-12-18T05:35:57;82419.72;;;-3.02;34.15
64711;BME280;51139;45.626;6.850;2022-12-18T05:38:24;82420.88;;;-3.09;34.53
64711;BME280;51139;45.626;6.850;2022-12-18T05:40:51;82424.00;;;-2.99;34.68
64711;BME280;51139;45.626;6.850;2022-12-18T05:43:17;82431.94;;;-3.09;34.81
64711;BME280;51139;45.626;6.850;2022-12-18T05:45:43;82435.22;;;-3.14;34.74
64711;BME280;51139;45.626;6.850;2022-12-18T05:48:09;82428.38;;;-3.11;35.23
64711;BME280;51139;45.626;6.850;2022-12-18T05:50:35;82426.75;;;-3.09;34.15
64711;BME280;51139;45.626;6.850;2022-12-18T05:53:03;82438.75;;;-3.11;35.40
64711;BME280;51139;45.626;6.850;2022-12-18T05:55:29;82437.22;;;-3.29;34.52
64711;BME280;51139;45.626;6.850;2022-12-18T05:57:57;82432.69;;;-3.40;34.58
64711;BME280;51139;45.626;6.850;2022-12-18T06:00:22;82435.81;;;-3.30;34.53
64711;BME280;51139;45.626;6.850;2022-12-18T06:02:48;82446.44;;;-3.28;35.04
64711;BME280;51139;45.626;6.850;2022-12-18T06:05:13;82438.47;;;-3.19;36.19
64711;BME280;51139;45.626;6.850;2022-12-18T06:07:38;82450.97;;;-3.17;35.77
64711;BME280;51139;45.626;6.850;2022-12-18T06:10:04;82453.94;;;-2.98;33.68
64711;BME280;51139;45.626;6.850;2022-12-18T06:12:30;82455.06;;;-3.05;34.01
64711;BME280;51139;45.626;6.850;2022-12-18T06:14:56;82453.22;;;-2.99;34.56
64711;BME280;51139;45.626;6.850;2022-12-18T06:17:21;82450.53;;;-3.10;35.18
64711;BME280;51139;45.626;6.850;2022-12-18T06:19:46;82452.13;;;-3.24;35.52
64711;BME280;51139;45.626;6.850;2022-12-18T06:22:12;82458.22;;;-3.27;36.14
64711;BME280;51139;45.626;6.850;2022-12-18T06:24:37;82462.09;;;-3.43;36.89
64711;BME280;51139;45.626;6.850;2022-12-18T06:27:02;82452.88;;;-3.50;36.87
64711;BME280;51139;45.626;6.850;2022-12-18T06:29:28;82459.97;;;-3.45;36.67
64711;BME280;51139;45.626;6.850;2022-12-18T06:31:53;82464.69;;;-3.43;36.84
64711;BME280;51139;45.626;6.850;2022-12-18T06:34:18;82465.84;;;-3.44;38.14
64711;BME280;51139;45.626;6.850;2022-12-18T06:36:44;82466.41;;;-3.34;37.55
64711;BME280;51139;45.626;6.850;2022-12-18T06:39:09;82473.09;;;-3.22;36.54
64711;BME280;51139;45.626;6.850;2022-12-18T06:41:34;82470.69;;;-3.26;36.44
64711;BME280;51139;45.626;6.850;2022-12-18T06:44:00;82467.44;;;-3.20;36.35
64711;BME280;51139;45.626;6.850;2022-12-18T06:46:25;82468.72;;;-3.04;36.39
64711;BME280;51139;45.626;6.850;2022-12-18T06:48:51;82476.25;;;-3.06;35.63
64711;BME280;51139;45.626;6.850;2022-12-18T06:51:21;82472.25;;;-3.08;35.88
64711;BME280;51139;45.626;6.850;2022-12-18T06:53:47;82473.56;;;-2.86;34.21
64711;BME280;51139;45.626;6.850;2022-12-18T06:56:12;82473.13;;;-2.84;34.29
64711;BME280;51139;45.626;6.850;2022-12-18T06:58:38;82475.63;;;-2.96;33.75
64711;BME280;51139;45.626;6.850;2022-12-18T07:01:06;82481.81;;;-2.87;33.92
64711;BME280;51139;45.626;6.850;2022-12-18T07:03:32;82481.75;;;-2.99;33.61
64711;BME280;51139;45.626;6.850;2022-12-18T07:05:58;82491.97;;;-3.16;33.93
64711;BME280;51139;45.626;6.850;2022-12-18T07:08:24;82493.53;;;-2.98;32.77
64711;BME280;51139;45.626;6.850;2022-12-18T07:10:49;82496.69;;;-2.82;31.55
64711;BME280;51139;45.626;6.850;2022-12-18T07:13:18;82495.22;;;-2.89;32.26
64711;BME280;51139;45.626;6.850;2022-12-18T07:15:43;82506.84;;;-2.79;32.91
64711;BME280;51139;45.626;6.850;2022-12-18T07:18:09;82502.81;;;-2.85;32.46
64711;BME280;51139;45.626;6.850;2022-12-18T07:20:34;82508.38;;;-2.60;33.64
64711;BME280;51139;45.626;6.850;2022-12-18T07:23:02;82513.25;;;-2.74;32.85
64711;BME280;51139;45.626;6.850;2022-12-18T07:25:28;82519.53;;;-2.86;32.54
64711;BME280;51139;45.626;6.850;2022-12-18T07:27:54;82520.25;;;-3.18;34.74
64711;BME280;51139;45.626;6.850;2022-12-18T07:30:19;82526.50;;;-3.04;35.07
64711;BME280;51139;45.626;6.850;2022-12-18T07:32:45;82537.78;;;-3.07;37.15
64711;BME280;51139;45.626;6.850;2022-12-18T07:35:10;82533.78;;;-3.02;36.82
64711;BME280;51139;45.626;6.850;2022-12-18T07:37:35;82540.28;;;-2.86;36.15
64711;BME280;51139;45.626;6.850;2022-12-18T07:40:01;82538.84;;;-2.87;35.90
64711;BME280;51139;45.626;6.850;2022-12-18T07:42:26;82545.38;;;-2.98;35.25
64711;BME280;51139;45.626;6.850;2022-12-18T07:45:01;82553.84;;;-2.97;34.36
64711;BME280;51139;45.626;6.850;2022-12-18T07:47:28;82549.00;;;-2.84;34.74
64711;BME280;51139;45.626;6.850;2022-12-18T07:49:53;82560.53;;;-2.90;34.50
64711;BME280;51139;45.626;6.850;2022-12-18T07:52:19;82553.59;;;-2.99;34.48
64711;BME280;51139;45.626;6.850;2022-12-18T07:54:44;82562.88;;;-2.92;33.53
64711;BME280;51139;45.626;6.850;2022-12-18T07:57:10;82566.97;;;-2.80;32.84
64711;BME280;51139;45.626;6.850;2022-12-18T07:59:36;82560.38;;;-2.43;33.05
64711;BME280;51139;45.626;6.850;2022-12-18T08:02:30;82559.63;;;-2.06;32.86
64711;BME280;51139;45.626;6.850;2022-12-18T08:04:55;82572.63;;;-1.45;31.84
64711;BME280;51139;45.626;6.850;2022-12-18T08:07:21;82560.94;;;-1.01;31.86
64711;BME280;51139;45.626;6.850;2022-12-18T08:09:46;82565.66;;;-0.94;31.58
64711;BME280;51139;45.626;6.850;2022-12-18T08:12:11;82568.06;;;-0.79;31.83
64711;BME280;51139;45.626;6.850;2022-12-18T08:14:37;82567.78;;;0.05;27.60
64711;BME280;51139;45.626;6.850;2022-12-18T08:17:02;82570.16;;;0.08;30.71
64711;BME280;51139;45.626;6.850;2022-12-18T08:19:27;82556.84;;;0.23;31.08
64711;BME280;51139;45.626;6.850;2022-12-18T08:21:53;82574.09;;;0.49;31.73
64711;BME280;51139;45.626;6.850;2022-12-18T08:24:18;82569.69;;;0.80;30.92
64711;BME280;51139;45.626;6.850;2022-12-18T08:26:44;82568.91;;;1.02;30.75
64711;BME280;51139;45.626;6.850;2022-12-18T08:29:09;82570.94;;;1.15;30.77
64711;BME280;51139;45.626;6.850;2022-12-18T08:31:38;82568.50;;;1.29;31.07
64711;BME280;51139;45.626;6.850;2022-12-18T08:34:08;82568.16;;;1.08;30.63
64711;BME280;51139;45.626;6.850;2022-12-18T08:36:34;82565.19;;;1.28;31.37
64711;BME280;51139;45.626;6.850;2022-12-18T08:39:02;82572.19;;;2.12;30.98
64711;BME280;51139;45.626;6.850;2022-12-18T08:41:27;82571.69;;;2.69;27.75
64711;BME280;51139;45.626;6.850;2022-12-18T08:43:56;82583.78;;;3.73;25.02
64711;BME280;51139;45.626;6.850;2022-12-18T08:46:43;82576.53;;;2.59;26.70
64711;BME280;51139;45.626;6.850;2022-12-18T08:49:10;82570.72;;;2.22;27.79
64711;BME280;51139;45.626;6.850;2022-12-18T08:51:36;82563.19;;;2.38;27.82
64711;BME280;51139;45.626;6.850;2022-12-18T08:54:02;82569.84;;;3.08;26.86
64711;BME280;51139;45.626;6.850;2022-12-18T08:56:27;82578.47;;;3.60;26.46
64711;BME280;51139;45.626;6.850;2022-12-18T08:58:54;82564.13;;;3.99;27.08
64711;BME280;51139;45.626;6.850;2022-12-18T09:01:20;82573.78;;;4.37;24.78
64711;BME280;51139;45.626;6.850;2022-12-18T09:03:45;82571.25;;;5.79;14.29
64711;BME280;51139;45.626;6.850;2022-12-18T09:06:13;82562.53;;;5.09;23.03
64711;BME280;51139;45.626;6.850;2022-12-18T09:08:40;82567.69;;;4.75;24.68
64711;BME280;51139;45.626;6.850;2022-12-18T09:11:12;82569.47;;;5.95;22.07
64711;BME280;51139;45.626;6.850;2022-12-18T09:13:38;82569.22;;;4.97;26.82
64711;BME280;51139;45.626;6.850;2022-12-18T09:16:04;82573.97;;;5.12;27.42
64711;BME280;51139;45.626;6.850;2022-12-18T09:18:29;82582.84;;;5.09;25.97
64711;BME280;51139;45.626;6.850;2022-12-18T09:20:54;82581.81;;;5.52;23.96
64711;BME280;51139;45.626;6.850;2022-12-18T09:23:22;82576.50;;;7.28;23.35
64711;BME280;51139;45.626;6.850;2022-12-18T09:25:47;82579.22;;;9.80;21.47
64711;BME280;51139;45.626;6.850;2022-12-18T09:28:15;82573.31;;;11.37;19.20
64711;BME280;51139;45.626;6.850;2022-12-18T09:30:42;82575.16;;;7.79;21.14
64711;BME280;51139;45.626;6.850;2022-12-18T09:33:09;82582.53;;;7.07;22.57
64711;BME280;51139;45.626;6.850;2022-12-18T09:35:38;82578.13;;;8.20;24.78
64711;BME280;51139;45.626;6.850;2022-12-18T09:38:04;82574.53;;;10.60;15.91
64711;BME280;51139;45.626;6.850;2022-12-18T09:40:35;82583.06;;;10.84;17.52
64711;BME280;51139;45.626;6.850;2022-12-18T09:43:04;82582.63;;;10.95;14.35
64711;BME280;51139;45.626;6.850;2022-12-18T09:45:40;82577.75;;;13.48;16.01
64711;BME280;51139;45.626;6.850;2022-12-18T09:48:15;82575.63;;;14.04;13.57
64711;BME280;51139;45.626;6.850;2022-12-18T09:50:44;82581.25;;;11.20;15.57
64711;BME280;51139;45.626;6.850;2022-12-18T09:53:16;82586.03;;;10.88;15.24
64711;BME280;51139;45.626;6.850;2022-12-18T09:55:45;82581.25;;;9.41;16.32
64711;BME280;51139;45.626;6.850;2022-12-18T09:58:19;82582.13;;;9.04;20.23
64711;BME280;51139;45.626;6.850;2022-12-18T10:00:46;82587.78;;;10.60;17.77
64711;BME280;51139;45.626;6.850;2022-12-18T10:03:13;82586.25;;;9.93;16.30
64711;BME280;51139;45.626;6.850;2022-12-18T10:05:58;82580.38;;;9.07;15.62
64711;BME280;51139;45.626;6.850;2022-12-18T10:08:36;82581.41;;;9.12;17.19
64711;BME280;51139;45.626;6.850;2022-12-18T10:11:35;82589.31;;;10.71;16.92
64711;BME280;51139;45.626;6.850;2022-12-18T10:14:13;82575.94;;;11.63;16.64
64711;BME280;51139;45.626;6.850;2022-12-18T10:17:12;82581.91;;;11.46;15.56
64711;BME280;51139;45.626;6.850;2022-12-18T10:20:12;82579.06;;;14.73;12.42
64711;BME280;51139;45.626;6.850;2022-12-18T10:25:19;82588.25;;;10.26;18.36
64711;BME280;51139;45.626;6.850;2022-12-18T10:27:47;82581.66;;;9.93;16.96
64711;BME280;51139;45.626;6.850;2022-12-18T10:30:18;82584.22;;;10.17;16.10
64711;BME280;51139;45.626;6.850;2022-12-18T10:32:44;82590.94;;;9.07;16.95
64711;BME280;51139;45.626;6.850;2022-12-18T10:35:28;82583.81;;;7.51;18.86
64711;BME280;51139;45.626;6.850;2022-12-18T10:40:29;82582.78;;;8.58;18.96
64711;BME280;51139;45.626;6.850;2022-12-18T10:43:05;82578.97;;;8.98;20.12
64711;BME280;51139;45.626;6.850;2022-12-18T10:45:35;82582.00;;;7.74;19.70
64711;BME280;51139;45.626;6.850;2022-12-18T10:48:01;82588.28;;;7.27;22.74
64711;BME280;51139;45.626;6.850;2022-12-18T10:50:34;82593.63;;;7.79;22.91
64711;BME280;51139;45.626;6.850;2022-12-18T10:53:02;82589.81;;;7.51;22.39
64711;BME280;51139;45.626;6.850;2022-12-18T10:55:38;82589.81;;;7.51;21.02
64711;BME280;51139;45.626;6.850;2022-12-18T10:58:30;82592.28;;;7.57;21.98
64711;BME280;51139;45.626;6.850;2022-12-18T11:01:11;82587.97;;;7.38;22.27
64711;BME280;51139;45.626;6.850;2022-12-18T11:03:45;82588.47;;;7.66;21.06
64711;BME280;51139;45.626;6.850;2022-12-18T11:06:16;82578.97;;;7.34;20.51
64711;BME280;51139;45.626;6.850;2022-12-18T11:08:43;82588.94;;;7.93;19.95
64711;BME280;51139;45.626;6.850;2022-12-18T11:11:20;82593.03;;;7.65;20.72
64711;BME280;51139;45.626;6.850;2022-12-18T11:14:06;82595.16;;;7.67;18.94
64711;BME280;51139;45.626;6.850;2022-12-18T11:16:44;82599.97;;;8.28;20.57
64711;BME280;51139;45.626;6.850;2022-12-18T11:19:33;82590.91;;;8.60;19.13
64711;BME280;51139;45.626;6.850;2022-12-18T11:21:59;82591.84;;;8.18;19.23
64711;BME280;51139;45.626;6.850;2022-12-18T11:24:34;82593.81;;;7.15;19.05
64711;BME280;51139;45.626;6.850;2022-12-18T11:27:02;82595.63;;;7.21;19.71
64711;BME280;51139;45.626;6.850;2022-12-18T11:29:35;82593.47;;;7.48;18.67
64711;BME280;51139;45.626;6.850;2022-12-18T11:32:35;82583.97;;;6.87;18.42
64711;BME280;51139;45.626;6.850;2022-12-18T11:37:33;82586.22;;;7.41;18.94
64711;BME280;51139;45.626;6.850;2022-12-18T11:40:11;82578.19;;;7.47;17.20
64711;BME280;51139;45.626;6.850;2022-12-18T11:45:35;82568.34;;;7.18;18.83
64711;BME280;51139;45.626;6.850;2022-12-18T11:48:20;82567.59;;;7.39;19.62
64711;BME280;51139;45.626;6.850;2022-12-18T11:50:52;82570.34;;;7.62;16.64
64711;BME280;51139;45.626;6.850;2022-12-18T11:53:20;82566.97;;;7.98;15.55
64711;BME280;51139;45.626;6.850;2022-12-18T11:56:17;82562.59;;;8.01;16.03
64711;BME280;51139;45.626;6.850;2022-12-18T12:23:06;82561.44;;;7.73;16.67
64711;BME280;51139;45.626;6.850;2022-12-18T12:34:20;82562.19;;;6.86;16.51
64711;BME280;51139;45.626;6.850;2022-12-18T12:37:01;82565.56;;;6.95;17.83
64711;BME280;51139;45.626;6.850;2022-12-18T12:39:33;82560.28;;;7.16;19.35
64711;BME280;51139;45.626;6.850;2022-12-18T12:42:01;82559.00;;;7.38;20.01
64711;BME280;51139;45.626;6.850;2022-12-18T12:44:50;82559.78;;;7.25;18.97
64711;BME280;51139;45.626;6.850;2022-12-18T12:47:30;82556.50;;;7.33;17.80
64711;BME280;51139;45.626;6.850;2022-12-18T12:49:59;82553.53;;;7.81;17.54
64711;BME280;51139;45.626;6.850;2022-12-18T12:52:34;82549.88;;;7.47;20.87
64711;BME280;51139;45.626;6.850;2022-12-18T12:55:04;82551.06;;;7.75;21.29
64711;BME280;51139;45.626;6.850;2022-12-18T13:00:46;82551.38;;;6.98;24.18
64711;BME280;51139;45.626;6.850;2022-12-18T13:03:28;82552.78;;;6.99;24.26
64711;BME280;51139;45.626;6.850;2022-12-18T13:06:04;82558.63;;;7.05;23.71
64711;BME280;51139;45.626;6.850;2022-12-18T13:08:53;82548.41;;;7.01;22.12
64711;BME280;51139;45.626;6.850;2022-12-18T13:11:41;82552.09;;;6.98;21.82
64711;BME280;51139;45.626;6.850;2022-12-18T13:19:42;82548.53;;;7.54;21.78
64711;BME280;51139;45.626;6.850;2022-12-18T13:22:27;82550.53;;;7.77;20.30
64711;BME280;51139;45.626;6.850;2022-12-18T13:24:54;82547.53;;;7.65;21.56
64711;BME280;51139;45.626;6.850;2022-12-18T13:27:47;82553.59;;;7.52;19.81
64711;BME280;51139;45.626;6.850;2022-12-18T13:41:03;82551.34;;;6.90;20.40
64711;BME280;51139;45.626;6.850;2022-12-18T13:43:37;82552.00;;;6.83;20.61
64711;BME280;51139;45.626;6.850;2022-12-18T13:46:17;82553.75;;;6.38;21.96
64711;BME280;51139;45.626;6.850;2022-12-18T13:48:50;82558.81;;;6.57;22.45
64711;BME280;51139;45.626;6.850;2022-12-18T13:51:17;82556.25;;;6.94;23.29
64711;BME280;51139;45.626;6.850;2022-12-18T13:53:49;82558.84;;;6.86;22.81
64711;BME280;51139;45.626;6.850;2022-12-18T13:56:22;82555.41;;;6.49;22.03
64711;BME280;51139;45.626;6.850;2022-12-18T14:01:52;82555.47;;;6.14;22.36
64711;BME280;51139;45.626;6.850;2022-12-18T14:04:27;82556.50;;;6.32;21.41
64711;BME280;51139;45.626;6.850;2022-12-18T14:06:58;82552.34;;;6.37;21.67
64711;BME280;51139;45.626;6.850;2022-12-18T14:09:26;82552.31;;;6.58;21.13
64711;BME280;51139;45.626;6.850;2022-12-18T14:11:54;82557.22;;;5.98;23.99
64711;BME280;51139;45.626;6.850;2022-12-18T14:14:46;82556.19;;;5.05;25.98
64711;BME280;51139;45.626;6.850;2022-12-18T14:17:13;82560.63;;;4.83;26.25
64711;BME280;51139;45.626;6.850;2022-12-18T14:19:50;82555.97;;;4.76;23.38
64711;BME280;51139;45.626;6.850;2022-12-18T14:22:25;82564.97;;;4.94;20.13
64711;BME280;51139;45.626;6.850;2022-12-18T14:25:33;82572.31;;;5.36;18.59
64711;BME280;51139;45.626;6.850;2022-12-18T14:30:38;82570.84;;;4.87;24.97
64711;BME280;51139;45.626;6.850;2022-12-18T14:33:13;82573.09;;;5.58;17.97
64711;BME280;51139;45.626;6.850;2022-12-18T14:35:42;82571.25;;;5.79;18.18
64711;BME280;51139;45.626;6.850;2022-12-18T14:40:56;82583.25;;;5.88;26.39
64711;BME280;51139;45.626;6.850;2022-12-18T14:43:22;82585.16;;;5.53;28.80
64711;BME280;51139;45.626;6.850;2022-12-18T14:45:48;82579.50;;;5.97;27.32
64711;BME280;51139;45.626;6.850;2022-12-18T14:48:19;82586.34;;;6.13;25.93
64711;BME280;51139;45.626;6.850;2022-12-18T14:50:54;82581.91;;;5.95;30.11